PWSweather.com
Personal Weather Stations
Station Observations

CheritonFolkestoneGB

Lat: 51.088, Lon: 1.135

Elevation: 156

Station Type: Maplin N96GY

http://www.ironeagleuk.co.uk/cumulus/index.htm

Latest ConditionsUpdated 1:54:01 AM GMT Wednesday, Aug 21, 2019
Currently Today's Max Today's Min Today's Average
Temperature 54.9°F12.7°C 55.9°F13.3°C 54.9°F12.7°C 55.2°F12.9°C
Dew Point 51.1°F10.6°C 53.7°F12.1°C 51.1°F10.6°C 52.4°F11.3°C
Winds 2.4 mph W3.9 kmh W 2.4 mph -3.9 kmh - - 0.6 mph 1.0 kmh
Wind Gusts 3.1 mph5.0 kmh 3.1 mph5.0 kmh - -
Humidity 87% 92% 87% 90%
Pressure 30.40 in1029.5 mb 30.40 in1029.5 mb 30.39 in1029.1 mb -
Hour Temp Dew Point Humidity Winds Wind Gusts Pressure Precip Precip Rate Daily Precip Total
01:54 AM 54.9°F12.7°C 51.1°F10.6°C 87% 2.4 mph W3.9 kmh W 3.1 mph5.0 kmh 30.40 in1029.5 mb 0.00 in0.0 mm 0.00 in0.0 mm 0.00 in0.0 mm
01:51 AM 54.9°F12.7°C 51.4°F10.8°C 88% 2.0 mph W3.2 kmh W 3.1 mph5.0 kmh 30.40 in1029.5 mb 0.00 in0.0 mm 0.00 in0.0 mm 0.00 in0.0 mm
01:48 AM 54.9°F12.7°C 51.4°F10.8°C 88% 1.9 mph W3.1 kmh W 2.2 mph3.5 kmh 30.40 in1029.5 mb 0.00 in0.0 mm 0.00 in0.0 mm 0.00 in0.0 mm
01:45 AM 54.9°F12.7°C 51.4°F10.8°C 88% 1.7 mph WSW2.7 kmh WSW 2.2 mph3.5 kmh 30.40 in1029.5 mb 0.00 in0.0 mm 0.00 in0.0 mm 0.00 in0.0 mm
01:42 AM 54.9°F12.7°C 51.4°F10.8°C 88% 1.7 mph WSW2.7 kmh WSW 2.2 mph3.5 kmh 30.40 in1029.5 mb 0.00 in0.0 mm 0.00 in0.0 mm 0.00 in0.0 mm
01:39 AM 54.9°F12.7°C 51.4°F10.8°C 88% 1.6 mph WSW2.6 kmh WSW 2.2 mph3.5 kmh 30.39 in1029.1 mb 0.00 in0.0 mm 0.00 in0.0 mm 0.00 in0.0 mm
01:36 AM 54.9°F12.7°C 51.4°F10.8°C 88% 1.6 mph WSW2.6 kmh WSW 1.6 mph2.6 kmh 30.40 in1029.5 mb 0.00 in0.0 mm 0.00 in0.0 mm 0.00 in0.0 mm
01:33 AM 54.9°F12.7°C 51.4°F10.8°C 88% 1.5 mph WSW2.4 kmh WSW 1.6 mph2.6 kmh 30.40 in1029.5 mb 0.00 in0.0 mm 0.00 in0.0 mm 0.00 in0.0 mm
01:30 AM 54.9°F12.7°C 51.4°F10.8°C 88% 1.3 mph WSW2.1 kmh WSW 1.6 mph2.6 kmh 30.40 in1029.5 mb 0.00 in0.0 mm 0.00 in0.0 mm 0.00 in0.0 mm
01:27 AM 54.9°F12.7°C 51.7°F10.9°C 89% 1.4 mph WSW2.3 kmh WSW 2.2 mph3.5 kmh 30.40 in1029.5 mb 0.00 in0.0 mm 0.00 in0.0 mm 0.00 in0.0 mm
01:24 AM 54.9°F12.7°C 51.7°F10.9°C 89% 1.0 mph WSW1.6 kmh WSW 2.2 mph3.5 kmh 30.40 in1029.5 mb 0.00 in0.0 mm 0.00 in0.0 mm 0.00 in0.0 mm
01:21 AM 54.9°F12.7°C 51.7°F10.9°C 89% 0.7 mph WSW1.1 kmh WSW 2.2 mph3.5 kmh 30.40 in1029.5 mb 0.00 in0.0 mm 0.00 in0.0 mm 0.00 in0.0 mm
01:18 AM 54.9°F12.7°C 51.7°F10.9°C 89% 0.2 mph W0.3 kmh W 2.2 mph3.5 kmh 30.40 in1029.5 mb 0.00 in0.0 mm 0.00 in0.0 mm 0.00 in0.0 mm
01:15 AM 55.0°F12.8°C 51.9°F11.1°C 89% Calm Calm -- 30.40 in1029.5 mb 0.00 in0.0 mm 0.00 in0.0 mm 0.00 in0.0 mm
01:12 AM 55.0°F12.8°C 51.9°F11.1°C 89% Calm Calm -- 30.40 in1029.5 mb 0.00 in0.0 mm 0.00 in0.0 mm 0.00 in0.0 mm
01:09 AM 55.2°F12.9°C 52.3°F11.3°C 90% Calm Calm -- 30.39 in1029.1 mb 0.00 in0.0 mm 0.00 in0.0 mm 0.00 in0.0 mm
01:06 AM 55.2°F12.9°C 52.3°F11.3°C 90% Calm Calm -- 30.39 in1029.1 mb 0.00 in0.0 mm 0.00 in0.0 mm 0.00 in0.0 mm
01:03 AM 55.2°F12.9°C 52.3°F11.3°C 90% Calm Calm -- 30.39 in1029.1 mb 0.00 in0.0 mm 0.00 in0.0 mm 0.00 in0.0 mm
01:00 AM 55.2°F12.9°C 52.3°F11.3°C 90% Calm Calm -- 30.40 in1029.5 mb 0.00 in0.0 mm 0.00 in0.0 mm 0.00 in0.0 mm
12:57 AM 55.2°F12.9°C 52.3°F11.3°C 90% Calm Calm -- 30.39 in1029.1 mb 0.00 in0.0 mm 0.00 in0.0 mm 0.00 in0.0 mm
12:54 AM 55.2°F12.9°C 52.6°F11.4°C 91% Calm Calm -- 30.39 in1029.1 mb 0.00 in0.0 mm 0.00 in0.0 mm 0.00 in0.0 mm
12:51 AM 55.2°F12.9°C 52.6°F11.4°C 91% Calm Calm -- 30.40 in1029.5 mb 0.00 in0.0 mm 0.00 in0.0 mm 0.00 in0.0 mm
12:48 AM 55.2°F12.9°C 52.6°F11.4°C 91% Calm Calm -- 30.39 in1029.1 mb 0.00 in0.0 mm 0.00 in0.0 mm 0.00 in0.0 mm
12:45 AM 55.2°F12.9°C 52.6°F11.4°C 91% Calm Calm -- 30.39 in1029.1 mb 0.00 in0.0 mm 0.00 in0.0 mm 0.00 in0.0 mm
12:42 AM 55.2°F12.9°C 52.6°F11.4°C 91% Calm Calm -- 30.40 in1029.5 mb 0.00 in0.0 mm 0.00 in0.0 mm 0.00 in0.0 mm
12:39 AM 55.2°F12.9°C 52.6°F11.4°C 91% Calm Calm -- 30.40 in1029.5 mb 0.00 in0.0 mm 0.00 in0.0 mm 0.00 in0.0 mm
12:36 AM 55.2°F12.9°C 52.6°F11.4°C 91% Calm Calm -- 30.40 in1029.5 mb 0.00 in0.0 mm 0.00 in0.0 mm 0.00 in0.0 mm
12:33 AM 55.4°F13.0°C 53.1°F11.7°C 92% Calm Calm -- 30.40 in1029.5 mb 0.00 in0.0 mm 0.00 in0.0 mm 0.00 in0.0 mm
12:30 AM 55.4°F13.0°C 53.1°F11.7°C 92% Calm Calm -- 30.40 in1029.5 mb 0.00 in0.0 mm 0.00 in0.0 mm 0.00 in0.0 mm
12:27 AM 55.4°F13.0°C 53.1°F11.7°C 92% Calm Calm -- 30.40 in1029.5 mb 0.00 in0.0 mm 0.00 in0.0 mm 0.00 in0.0 mm
12:24 AM 55.4°F13.0°C 53.1°F11.7°C 92% 0.2 mph SW0.3 kmh SW 0.7 mph1.1 kmh 30.39 in1029.1 mb 0.00 in0.0 mm 0.00 in0.0 mm 0.00 in0.0 mm
12:21 AM 55.4°F13.0°C 53.1°F11.7°C 92% 0.2 mph SW0.3 kmh SW 0.7 mph1.1 kmh 30.40 in1029.5 mb 0.00 in0.0 mm 0.00 in0.0 mm 0.00 in0.0 mm
12:18 AM 55.4°F13.0°C 53.1°F11.7°C 92% 0.2 mph SW0.3 kmh SW 0.7 mph1.1 kmh 30.40 in1029.5 mb 0.00 in0.0 mm 0.00 in0.0 mm 0.00 in0.0 mm
12:15 AM 55.4°F13.0°C 53.1°F11.7°C 92% 0.1 mph SW0.2 kmh SW 0.7 mph1.1 kmh 30.40 in1029.5 mb 0.00 in0.0 mm 0.00 in0.0 mm 0.00 in0.0 mm
12:12 AM 55.8°F13.2°C 53.5°F11.9°C 92% 0.3 mph WSW0.5 kmh WSW 1.6 mph2.6 kmh 30.39 in1029.1 mb 0.00 in0.0 mm 0.00 in0.0 mm 0.00 in0.0 mm
12:09 AM 55.8°F13.2°C 53.5°F11.9°C 92% 0.7 mph SW1.1 kmh SW 1.6 mph2.6 kmh 30.40 in1029.5 mb 0.00 in0.0 mm 0.00 in0.0 mm 0.00 in0.0 mm
12:06 AM 55.8°F13.2°C 53.5°F11.9°C 92% 1.2 mph SW1.9 kmh SW 1.6 mph2.6 kmh 30.40 in1029.5 mb 0.00 in0.0 mm 0.00 in0.0 mm 0.00 in0.0 mm
12:03 AM 55.9°F13.3°C 53.7°F12.1°C 92% 1.4 mph SW2.3 kmh SW 1.6 mph2.6 kmh 30.40 in1029.5 mb 0.00 in0.0 mm 0.00 in0.0 mm 0.00 in0.0 mm
12:00 AM 55.9°F13.3°C 53.7°F12.1°C 92% 1.4 mph SW2.3 kmh SW 1.6 mph2.6 kmh 30.40 in1029.5 mb 0.00 in0.0 mm 0.00 in0.0 mm 0.00 in0.0 mm